createdAt,value
2019-02-17T00:00:43.039Z,0.10
2019-02-17T00:03:11.443Z,0.10
2019-02-17T00:05:39.835Z,0.20
2019-02-17T00:08:08.242Z,0.20
2019-02-17T00:10:36.636Z,0.10
2019-02-17T00:13:05.045Z,0.10
2019-02-17T00:18:01.532Z,0.10
2019-02-17T00:20:30.298Z,0.10
2019-02-17T00:22:58.703Z,0.10
2019-02-17T00:25:27.100Z,0.10
2019-02-17T00:32:51.658Z,0.00
2019-02-17T00:35:20.140Z,0.00
2019-02-17T00:37:48.633Z,-0.10
2019-02-17T00:40:17.027Z,-0.10
2019-02-17T00:42:45.445Z,-0.20
2019-02-17T00:47:41.929Z,-0.30
2019-02-17T00:50:23.348Z,-0.20
2019-02-17T00:55:19.819Z,-0.40
2019-02-17T00:57:48.232Z,-0.40
2019-02-17T01:00:17.001Z,-0.40
2019-02-17T01:02:45.412Z,-0.30
2019-02-17T01:05:13.809Z,-0.40
2019-02-17T01:10:10.457Z,-0.40
2019-02-17T01:12:38.868Z,-0.30
2019-02-17T01:15:10.484Z,-0.30
2019-02-17T01:17:38.900Z,-0.30
2019-02-17T01:20:09.346Z,-0.40
2019-02-17T01:22:37.756Z,-0.40
2019-02-17T01:25:08.692Z,-0.50
2019-02-17T01:27:37.099Z,-0.60
2019-02-17T01:30:08.836Z,-0.60
2019-02-17T01:32:37.377Z,-0.70
2019-02-17T01:35:06.558Z,-0.70
2019-02-17T01:37:34.972Z,-0.80
2019-02-17T01:40:04.235Z,-0.80
2019-02-17T01:42:32.629Z,-0.70
2019-02-17T01:45:01.037Z,-0.70
2019-02-17T01:47:29.447Z,-0.70
2019-02-17T01:49:57.885Z,-0.60
2019-02-17T01:52:26.282Z,-0.60
2019-02-17T01:54:54.693Z,-0.70
2019-02-17T01:57:23.089Z,-0.60
2019-02-17T01:59:51.496Z,-0.50
2019-02-17T02:02:19.900Z,-0.50
2019-02-17T02:04:48.304Z,-0.60
2019-02-17T02:07:16.696Z,-0.50
2019-02-17T02:09:45.108Z,-0.50
2019-02-17T02:12:13.513Z,-0.50
2019-02-17T02:17:09.993Z,-0.50
2019-02-17T02:22:06.476Z,-0.60
2019-02-17T02:27:02.952Z,-0.60
2019-02-17T02:29:40.461Z,-0.60
2019-02-17T02:32:01.480Z,-0.70
2019-02-17T02:34:29.884Z,-0.80
2019-02-17T02:39:26.355Z,-0.90
2019-02-17T02:41:54.752Z,-1.00
2019-02-17T02:44:23.161Z,-1.10
2019-02-17T02:46:51.558Z,-1.10
2019-02-17T02:49:19.975Z,-1.10
2019-02-17T02:54:16.452Z,-1.20
2019-02-17T02:56:44.845Z,-1.20
2019-02-17T02:59:13.258Z,-1.20
2019-02-17T03:01:41.656Z,-1.20
2019-02-17T03:04:10.065Z,-1.20
2019-02-17T03:06:46.142Z,-1.20
2019-02-17T03:09:14.558Z,-1.10
2019-02-17T03:11:42.973Z,-1.00
2019-02-17T03:14:11.385Z,-1.10
2019-02-17T03:16:39.780Z,-1.20
2019-02-17T03:19:08.187Z,-1.30
2019-02-17T03:21:36.584Z,-1.30
2019-02-17T03:24:05.001Z,-1.30
2019-02-17T03:29:01.480Z,-1.40
2019-02-17T03:31:29.895Z,-1.40
2019-02-17T03:33:58.370Z,-1.50
2019-02-17T03:36:26.769Z,-1.50
2019-02-17T03:38:55.164Z,-1.40
2019-02-17T03:41:23.572Z,-1.50
2019-02-17T03:43:51.976Z,-1.40
2019-02-17T03:46:20.455Z,-1.50
2019-02-17T03:48:48.864Z,-1.50
2019-02-17T03:51:17.271Z,-1.60
2019-02-17T03:53:45.676Z,-1.60
2019-02-17T03:56:14.091Z,-1.60
2019-02-17T03:58:42.481Z,-1.70
2019-02-17T04:01:10.893Z,-1.70
2019-02-17T04:06:07.372Z,-1.60
2019-02-17T04:08:35.769Z,-1.60
2019-02-17T04:11:04.179Z,-1.70
2019-02-17T04:13:32.572Z,-1.70
2019-02-17T04:18:29.062Z,-1.70
2019-02-17T04:23:31.236Z,-1.90
2019-02-17T04:25:55.650Z,-1.90
2019-02-17T04:28:24.117Z,-1.90
2019-02-17T04:30:52.525Z,-2.00
2019-02-17T04:33:20.926Z,-2.00
2019-02-17T04:35:49.337Z,-2.00
2019-02-17T04:38:17.744Z,-2.00
2019-02-17T04:40:46.140Z,-2.10
2019-02-17T04:45:42.682Z,-2.10
2019-02-17T04:48:11.083Z,-2.10
2019-02-17T04:50:39.492Z,-2.20
2019-02-17T04:53:07.889Z,-2.20
2019-02-17T04:58:04.366Z,-2.20
2019-02-17T05:00:40.093Z,-2.20
2019-02-17T05:03:02.919Z,-2.20
2019-02-17T05:05:31.325Z,-2.30
2019-02-17T05:07:59.731Z,-2.30
2019-02-17T05:12:56.234Z,-2.30
2019-02-17T05:17:52.709Z,-2.40
2019-02-17T05:20:21.110Z,-2.30
2019-02-17T05:22:49.580Z,-2.40
2019-02-17T05:25:18.165Z,-2.40
2019-02-17T05:27:46.573Z,-2.40
2019-02-17T05:30:14.974Z,-2.40
2019-02-17T05:32:43.376Z,-2.50
2019-02-17T05:37:39.858Z,-2.40
2019-02-17T05:40:08.248Z,-2.40
2019-02-17T05:42:36.657Z,-2.40
2019-02-17T05:45:06.400Z,-2.50
2019-02-17T05:47:34.829Z,-2.50
2019-02-17T05:50:03.601Z,-2.40
2019-02-17T05:52:32.004Z,-2.50
2019-02-17T05:55:00.404Z,-2.50
2019-02-17T05:57:28.816Z,-2.50
2019-02-17T05:59:57.208Z,-2.50
2019-02-17T06:02:25.629Z,-2.50
2019-02-17T06:04:54.028Z,-2.60
2019-02-17T06:07:22.441Z,-2.60
2019-02-17T06:09:50.837Z,-2.70
2019-02-17T06:12:19.248Z,-2.60
2019-02-17T06:14:47.642Z,-2.50
2019-02-17T06:17:16.049Z,-2.60
2019-02-17T06:19:44.450Z,-2.50
2019-02-17T06:22:12.865Z,-2.60
2019-02-17T06:24:41.261Z,-2.60
2019-02-17T06:27:09.666Z,-2.60
2019-02-17T06:29:38.065Z,-2.50
2019-02-17T06:32:06.469Z,-2.50
2019-02-17T06:34:34.859Z,-2.60
2019-02-17T06:37:03.268Z,-2.50
2019-02-17T06:39:31.754Z,-2.40
2019-02-17T06:42:00.225Z,-2.40
2019-02-17T06:44:28.641Z,-2.40
2019-02-17T06:46:58.021Z,-2.40
2019-02-17T06:49:26.425Z,-2.40
2019-02-17T06:51:54.833Z,-2.40
2019-02-17T06:54:23.247Z,-2.30
2019-02-17T06:56:53.292Z,-2.30
2019-02-17T07:01:49.769Z,-2.20
2019-02-17T07:04:19.808Z,-2.00
2019-02-17T07:06:49.875Z,-1.80
2019-02-17T07:09:18.276Z,-1.30
2019-02-17T07:11:46.671Z,-0.80
2019-02-17T07:14:15.084Z,-0.30
2019-02-17T07:19:11.557Z,0.50
2019-02-17T07:21:39.991Z,0.70
2019-02-17T07:24:08.397Z,0.90
2019-02-17T07:26:36.793Z,1.30
2019-02-17T07:31:35.414Z,1.80
2019-02-17T07:34:04.032Z,2.20
2019-02-17T07:36:32.426Z,2.40
2019-02-17T07:41:29.065Z,2.90
2019-02-17T07:43:57.472Z,2.90
2019-02-17T07:46:25.896Z,3.00
2019-02-17T07:48:54.297Z,3.10
2019-02-17T07:51:22.684Z,3.20
2019-02-17T07:53:51.098Z,3.20
2019-02-17T07:56:19.612Z,3.20
2019-02-17T07:58:48.020Z,3.20
2019-02-17T08:01:45.094Z,3.30
2019-02-17T08:06:34.408Z,3.60
2019-02-17T08:09:04.483Z,3.80
2019-02-17T08:11:32.881Z,4.00
2019-02-17T08:14:01.280Z,4.20
2019-02-17T08:16:29.677Z,4.40
2019-02-17T08:21:26.148Z,4.80
2019-02-17T08:23:54.604Z,5.00
2019-02-17T08:26:22.999Z,5.30
2019-02-17T08:28:51.396Z,5.40
2019-02-17T08:31:19.805Z,5.70
2019-02-17T08:33:48.201Z,5.90
2019-02-17T08:36:16.614Z,6.10
2019-02-17T08:38:44.999Z,6.30
2019-02-17T08:41:13.414Z,6.50
2019-02-17T08:43:41.804Z,6.70
2019-02-17T08:48:38.289Z,7.10
2019-02-17T08:51:06.684Z,7.40
2019-02-17T08:53:35.081Z,7.50
2019-02-17T08:56:03.490Z,7.70
2019-02-17T08:58:31.888Z,7.90
2019-02-17T09:01:00.298Z,8.10
2019-02-17T09:03:28.734Z,8.30
2019-02-17T09:05:57.142Z,8.50
2019-02-17T09:10:53.649Z,9.00
2019-02-17T09:13:22.049Z,9.10
2019-02-17T09:15:50.448Z,9.20
2019-02-17T09:18:18.855Z,9.40
2019-02-17T09:20:47.260Z,9.60
2019-02-17T09:23:15.657Z,9.90
2019-02-17T09:25:44.069Z,10.20
2019-02-17T09:28:12.469Z,10.50
2019-02-17T09:30:41.044Z,10.80
2019-02-17T09:33:09.437Z,10.90
2019-02-17T09:35:37.865Z,11.00
2019-02-17T09:38:06.337Z,11.10
2019-02-17T09:40:34.749Z,11.30
2019-02-17T09:43:03.147Z,11.40
2019-02-17T09:45:31.568Z,11.60
2019-02-17T09:47:59.969Z,11.70
2019-02-17T09:52:56.448Z,12.00
2019-02-17T09:57:52.988Z,12.40
2019-02-17T10:00:21.400Z,12.70
2019-02-17T10:02:49.801Z,13.20
2019-02-17T10:05:18.196Z,13.60
2019-02-17T10:10:18.840Z,14.50
2019-02-17T10:15:15.305Z,15.40
2019-02-17T10:17:43.729Z,15.70
2019-02-17T10:22:40.983Z,16.40
2019-02-17T10:25:10.182Z,16.70
2019-02-17T10:27:38.591Z,16.90
2019-02-17T10:30:10.306Z,17.20
2019-02-17T10:35:07.965Z,17.40
2019-02-17T10:37:36.374Z,17.70
2019-02-17T10:40:08.080Z,18.10
2019-02-17T10:42:36.492Z,18.30
2019-02-17T10:45:05.737Z,18.50
2019-02-17T10:47:34.148Z,18.80
2019-02-17T10:50:02.547Z,19.10
2019-02-17T10:52:30.957Z,19.40
2019-02-17T10:54:59.437Z,19.60
2019-02-17T10:59:56.098Z,19.70
2019-02-17T11:02:24.760Z,19.70
2019-02-17T11:04:53.163Z,19.90
2019-02-17T11:07:21.576Z,20.20
2019-02-17T11:09:49.981Z,20.20
2019-02-17T11:12:18.429Z,20.20
2019-02-17T11:14:47.057Z,20.20
2019-02-17T11:17:15.568Z,20.10
2019-02-17T11:19:43.969Z,19.50
2019-02-17T11:22:12.380Z,18.40
2019-02-17T11:24:42.498Z,17.30
2019-02-17T11:27:10.914Z,16.50
2019-02-17T11:29:39.312Z,15.80
2019-02-17T11:32:07.713Z,15.20
2019-02-17T11:34:36.116Z,14.80
2019-02-17T11:37:04.587Z,14.40
2019-02-17T11:39:33.001Z,14.10
2019-02-17T11:42:01.405Z,13.90
2019-02-17T11:44:31.891Z,13.80
2019-02-17T11:49:28.022Z,13.60
2019-02-17T11:52:15.769Z,13.50
2019-02-17T11:54:44.179Z,13.50
2019-02-17T11:57:12.580Z,13.50
2019-02-17T11:59:40.984Z,13.50
2019-02-17T12:02:09.376Z,13.50
2019-02-17T12:07:05.869Z,13.60
2019-02-17T12:09:34.276Z,13.60
2019-02-17T12:12:02.688Z,13.60
2019-02-17T12:14:32.641Z,13.70
2019-02-17T12:19:29.122Z,13.60
2019-02-17T12:21:59.175Z,13.60
2019-02-17T12:24:29.227Z,13.70
2019-02-17T12:26:59.260Z,13.60
2019-02-17T12:29:29.312Z,13.60
2019-02-17T12:34:26.474Z,13.50
2019-02-17T12:36:54.873Z,13.40
2019-02-17T12:39:23.288Z,13.30
2019-02-17T12:41:51.701Z,13.20
2019-02-17T12:44:20.112Z,13.30
2019-02-17T12:46:48.511Z,13.30
2019-02-17T12:49:16.925Z,13.20
2019-02-17T12:51:45.325Z,13.30
2019-02-17T12:54:13.746Z,13.30
2019-02-17T12:56:42.140Z,13.30
2019-02-17T12:59:10.549Z,13.30
2019-02-17T13:01:38.950Z,13.40
2019-02-17T13:04:07.529Z,13.40
2019-02-17T13:06:35.933Z,13.40
2019-02-17T13:09:06.074Z,13.40
2019-02-17T13:11:34.517Z,13.40
2019-02-17T13:14:02.908Z,13.30
2019-02-17T13:18:59.388Z,13.10
2019-02-17T13:21:27.803Z,12.90
2019-02-17T13:23:56.195Z,12.80
2019-02-17T13:26:24.608Z,12.70
2019-02-17T13:28:53.008Z,12.70
2019-02-17T13:33:49.492Z,12.70
2019-02-17T13:36:17.916Z,12.70
2019-02-17T13:38:46.317Z,12.70
2019-02-17T13:41:14.728Z,12.60
2019-02-17T13:43:43.128Z,12.60
2019-02-17T13:46:11.538Z,12.60
2019-02-17T13:48:39.937Z,12.50
2019-02-17T13:51:08.346Z,12.50
2019-02-17T13:53:36.763Z,12.40
2019-02-17T13:56:05.169Z,12.40
2019-02-17T13:58:33.581Z,12.40
2019-02-17T14:01:01.988Z,12.40
2019-02-17T14:03:30.386Z,12.30
2019-02-17T14:05:58.872Z,12.40
2019-02-17T14:08:27.280Z,12.30
2019-02-17T14:10:55.684Z,12.30
2019-02-17T14:13:24.080Z,12.30
2019-02-17T14:15:52.521Z,12.30
2019-02-17T14:18:20.905Z,12.10
2019-02-17T14:20:49.316Z,12.00
2019-02-17T14:23:17.712Z,11.90
2019-02-17T14:25:46.124Z,11.90
2019-02-17T14:28:14.520Z,11.80
2019-02-17T14:30:42.926Z,11.80
2019-02-17T14:33:11.354Z,11.90
2019-02-17T14:35:39.752Z,11.90
2019-02-17T14:38:08.172Z,11.90
2019-02-17T14:40:36.632Z,11.90
2019-02-17T14:43:05.049Z,11.80
2019-02-17T14:48:01.525Z,11.40
2019-02-17T14:57:54.154Z,11.20
2019-02-17T15:02:50.641Z,11.10
2019-02-17T15:07:47.116Z,11.20
2019-02-17T15:10:15.511Z,11.20
2019-02-17T15:12:43.920Z,11.30
2019-02-17T15:15:13.946Z,11.40
2019-02-17T15:17:42.349Z,11.50
2019-02-17T15:20:16.480Z,11.50
2019-02-17T15:22:44.921Z,11.50
2019-02-17T15:25:13.424Z,11.50
2019-02-17T15:27:41.839Z,11.50
2019-02-17T15:30:15.093Z,11.60
2019-02-17T15:32:43.513Z,11.50
2019-02-17T15:37:40.000Z,11.50
2019-02-17T15:40:11.017Z,11.50
2019-02-17T15:42:39.424Z,11.40
2019-02-17T15:45:10.468Z,11.40
2019-02-17T15:47:38.873Z,11.40
2019-02-17T15:50:12.076Z,11.30
2019-02-17T15:52:40.488Z,11.20
2019-02-17T15:55:11.497Z,11.20
2019-02-17T15:57:39.909Z,11.10
2019-02-17T16:00:14.246Z,11.00
2019-02-17T16:02:42.655Z,11.00
2019-02-17T16:05:11.488Z,11.00
2019-02-17T16:07:39.975Z,10.90
2019-02-17T16:10:16.128Z,10.90
2019-02-17T16:12:44.625Z,10.80
2019-02-17T16:15:20.789Z,10.70
2019-02-17T16:17:49.209Z,10.60
2019-02-17T16:20:17.676Z,10.50
2019-02-17T16:22:46.089Z,10.40
2019-02-17T16:27:42.560Z,10.20
2019-02-17T16:30:13.853Z,10.10
2019-02-17T16:32:42.246Z,10.00
2019-02-17T16:35:10.658Z,9.80
2019-02-17T16:40:10.301Z,9.60
2019-02-17T16:42:38.700Z,9.60
2019-02-17T16:45:10.513Z,9.50
2019-02-17T16:50:13.089Z,9.10
2019-02-17T16:52:41.463Z,8.90
2019-02-17T16:55:11.025Z,8.80
2019-02-17T16:57:39.417Z,8.60
2019-02-17T17:05:08.622Z,8.20
2019-02-17T17:12:34.368Z,7.90
2019-02-17T17:15:02.950Z,7.70
2019-02-17T17:17:31.791Z,7.60
2019-02-17T17:22:28.880Z,7.40
2019-02-17T17:24:57.275Z,7.20
2019-02-17T17:27:25.679Z,7.20
2019-02-17T17:29:54.085Z,7.10
2019-02-17T17:32:22.476Z,7.00
2019-02-17T17:34:58.543Z,6.90
2019-02-17T17:37:20.998Z,6.80
2019-02-17T17:39:49.777Z,6.70
2019-02-17T17:42:18.167Z,6.60
2019-02-17T17:44:46.572Z,6.50
2019-02-17T17:47:15.018Z,6.40
2019-02-17T17:49:43.470Z,6.40
2019-02-17T17:52:12.060Z,6.30
2019-02-17T17:57:09.176Z,6.20
2019-02-17T17:59:37.608Z,6.00
2019-02-17T18:02:05.996Z,5.90
2019-02-17T18:04:34.401Z,5.80
2019-02-17T18:07:02.811Z,5.80
2019-02-17T18:09:31.211Z,5.90
2019-02-17T18:11:59.603Z,5.80
2019-02-17T18:14:28.020Z,5.70
2019-02-17T18:16:56.420Z,5.70
2019-02-17T18:19:24.820Z,5.60
2019-02-17T18:21:53.225Z,5.40
2019-02-17T18:24:21.632Z,5.30
2019-02-17T18:26:50.034Z,5.30
2019-02-17T18:29:18.436Z,5.20
2019-02-17T18:34:14.933Z,5.10
2019-02-17T18:36:43.332Z,5.00
2019-02-17T18:39:11.795Z,5.00
2019-02-17T18:44:08.277Z,4.90
2019-02-17T18:46:36.684Z,4.70
2019-02-17T18:49:05.080Z,4.60
2019-02-17T18:51:33.485Z,4.50
2019-02-17T18:54:01.883Z,4.40
2019-02-17T18:58:58.353Z,4.20
2019-02-17T19:01:26.757Z,4.10
2019-02-17T19:03:55.167Z,4.10
2019-02-17T19:06:23.638Z,4.10
2019-02-17T19:08:52.092Z,4.00
2019-02-17T19:11:20.498Z,3.90
2019-02-17T19:16:16.976Z,3.80
2019-02-17T19:26:09.821Z,3.70
2019-02-17T19:28:38.220Z,3.70
2019-02-17T19:31:06.703Z,3.60
2019-02-17T19:33:35.121Z,3.50
2019-02-17T19:36:03.523Z,3.40
2019-02-17T19:38:31.915Z,3.40
2019-02-17T19:41:01.592Z,3.40
2019-02-17T19:43:30.088Z,3.30
2019-02-17T19:45:58.495Z,3.40
2019-02-17T19:48:26.897Z,3.40
2019-02-17T19:53:23.368Z,3.30
2019-02-17T19:55:51.995Z,3.30
2019-02-17T19:58:20.389Z,3.20
2019-02-17T20:00:48.793Z,3.20
2019-02-17T20:03:33.788Z,3.10
2019-02-17T20:06:03.831Z,3.10
2019-02-17T20:15:56.770Z,3.10
2019-02-17T20:18:25.178Z,3.10
2019-02-17T20:20:53.572Z,3.00
2019-02-17T20:23:22.021Z,3.00
2019-02-17T20:25:50.464Z,3.00
2019-02-17T20:28:18.868Z,2.90
2019-02-17T20:30:47.257Z,2.70
2019-02-17T20:33:15.731Z,2.70
2019-02-17T20:35:44.110Z,2.60
2019-02-17T20:38:12.673Z,2.40
2019-02-17T20:40:41.077Z,2.30
2019-02-17T20:43:09.472Z,2.30
2019-02-17T20:45:37.885Z,2.20
2019-02-17T20:48:06.277Z,2.40
2019-02-17T20:53:02.779Z,2.30
2019-02-17T20:55:31.172Z,2.30
2019-02-17T20:57:59.580Z,2.20
2019-02-17T21:00:28.852Z,2.20
2019-02-17T21:02:57.430Z,2.10
2019-02-17T21:05:25.826Z,2.00
2019-02-17T21:10:22.300Z,1.90
2019-02-17T21:12:50.704Z,1.80
2019-02-17T21:17:48.845Z,1.80
2019-02-17T21:20:17.713Z,1.70
2019-02-17T21:22:46.117Z,1.60
2019-02-17T21:25:14.947Z,1.50
2019-02-17T21:27:43.348Z,1.50
2019-02-17T21:30:19.322Z,1.50
2019-02-17T21:32:48.094Z,1.40
2019-02-17T21:35:17.222Z,1.40
2019-02-17T21:37:45.633Z,1.40
2019-02-17T21:40:14.657Z,1.30
2019-02-17T21:42:43.132Z,1.20
2019-02-17T21:45:15.681Z,1.10
2019-02-17T21:47:44.080Z,1.10
2019-02-17T21:52:41.986Z,1.10
2019-02-17T21:57:42.837Z,1.10
2019-02-17T22:02:41.432Z,1.00
2019-02-17T22:05:09.897Z,1.00
2019-02-17T22:07:38.305Z,0.90
2019-02-17T22:10:10.040Z,1.00
2019-02-17T22:12:38.996Z,1.00
2019-02-17T22:15:10.638Z,1.00
2019-02-17T22:17:40.253Z,1.10
2019-02-17T22:20:10.391Z,1.20
2019-02-17T22:22:38.788Z,1.10
2019-02-17T22:25:08.530Z,1.20
2019-02-17T22:27:36.936Z,1.20
2019-02-17T22:30:08.476Z,1.10
2019-02-17T22:32:36.891Z,1.10
2019-02-17T22:35:05.917Z,1.10
2019-02-17T22:37:34.308Z,1.10
2019-02-17T22:40:02.712Z,0.90
2019-02-17T22:42:31.104Z,0.80
2019-02-17T22:44:59.510Z,0.80
2019-02-17T22:47:27.980Z,0.80
2019-02-17T22:49:56.378Z,0.80
2019-02-17T22:52:24.772Z,0.70
2019-02-17T22:54:53.172Z,0.70
2019-02-17T22:57:21.560Z,0.70
2019-02-17T22:59:49.972Z,0.70
2019-02-17T23:04:46.812Z,0.60
2019-02-17T23:07:15.329Z,0.70
2019-02-17T23:12:11.809Z,0.70
2019-02-17T23:14:40.216Z,0.70
2019-02-17T23:17:08.612Z,0.80
2019-02-17T23:19:37.120Z,0.80
2019-02-17T23:22:05.507Z,0.70
2019-02-17T23:24:34.211Z,0.60
2019-02-17T23:27:04.138Z,0.50
2019-02-17T23:29:32.793Z,0.50
2019-02-17T23:32:01.180Z,0.40
2019-02-17T23:34:29.581Z,0.30
2019-02-17T23:39:47.121Z,0.20
2019-02-17T23:42:15.512Z,0.20
2019-02-17T23:47:11.986Z,0.20
2019-02-17T23:49:40.392Z,0.10
2019-02-17T23:52:08.786Z,0.10
2019-02-17T23:57:05.262Z,0.00
